.
WxDataArchive / Data Records for 2013-10-18
2013-10-17 October 2013 2013-10-19

Data Records for Friday, 18 October 2013

Time	Temp	Chill	HIndex	Humid	Dewpt	 Wind 	HiWind	WindDir	Rain 	Barom 
-----	----	-----	------	-----	-----	------	------	-------	-----	----- 
00:00	44.2	44.2	44.2	87	40.6	0	0	---	0.00	29.908 
00:05	44.1	44.1	44.1	88	40.8	0	0	---	0.00	29.908 
00:10	43.9	43.9	43.9	88	40.6	0	0	---	0.00	29.908 
00:15	43.8	43.8	43.8	88	40.5	0	0	---	0.00	29.905 
00:20	43.6	43.6	43.6	89	40.6	0	0	---	0.00	29.905 
00:25	43.6	43.6	43.6	89	40.6	0	0	---	0.00	29.905 
00:30	43.5	43.5	43.5	89	40.5	0	0	---	0.00	29.905 
00:35	43.5	43.5	43.5	90	40.8	0	0	---	0.00	29.905 
00:40	43.3	43.3	43.3	90	40.6	0	0	---	0.00	29.905 
00:45	43.2	43.2	43.2	90	40.5	0	0	---	0.00	29.905 
00:50	43.2	43.2	43.2	90	40.5	0	0	---	0.00	29.905 
00:55	43.2	43.2	43.2	90	40.5	0	0	---	0.00	29.905 
01:00	43.1	43.1	43.1	90	40.4	0	0	---	0.00	29.907 
01:05	43.1	43.1	43.1	91	40.7	0	0	---	0.00	29.907 
01:10	42.9	42.9	42.9	91	40.5	0	0	---	0.00	29.907 
01:15	42.9	42.9	42.9	91	40.5	0	0	---	0.00	29.908 
01:20	42.8	42.8	42.8	91	40.4	0	0	---	0.00	29.908 
01:25	42.8	42.8	42.8	91	40.4	0	0	---	0.00	29.908 
01:30	42.6	42.6	42.6	91	40.2	0	0	---	0.00	29.910 
01:35	42.5	42.5	42.5	91	40.1	0	0	---	0.00	29.910 
01:40	42.5	42.5	42.5	91	40.1	0	0	---	0.00	29.910 
01:45	42.3	42.3	42.3	91	39.9	0	0	---	0.00	29.909 
01:50	42.2	42.2	42.2	91	39.8	0	0	---	0.00	29.909 
01:55	42.2	42.2	42.2	92	40.0	0	0	---	0.00	29.909 
02:00	42.1	42.1	42.1	92	39.9	0	0	---	0.00	29.909 
02:05	42.1	42.1	42.1	92	39.9	0	0	---	0.00	29.909 
02:10	41.9	41.9	41.9	92	39.7	0	0	---	0.00	29.909 
02:15	41.9	41.9	41.9	92	39.7	0	1	292	0.00	29.908 
02:20	41.9	41.9	41.9	92	39.7	0	1	---	0.00	29.908 
02:25	41.9	41.9	41.9	92	39.7	0	0	---	0.00	29.908 
02:30	41.9	41.9	41.9	92	39.7	0	0	---	0.00	29.906 
02:35	41.9	41.9	41.9	92	39.7	0	0	---	0.00	29.906 
02:40	41.8	41.8	41.8	92	39.6	0	0	---	0.00	29.906 
02:45	41.8	41.8	41.8	92	39.6	0	0	---	0.00	29.905 
02:50	41.9	41.9	41.9	92	39.7	0	0	---	0.00	29.905 
02:55	41.9	41.9	41.9	92	39.7	0	0	---	0.00	29.905 
03:00	41.8	41.8	41.8	92	39.6	0	0	---	0.00	29.905 
03:05	41.8	41.8	41.8	92	39.6	0	1	292	0.00	29.905 
03:10	41.8	41.8	41.8	92	39.6	0	1	292	0.00	29.905 
03:15	41.6	41.6	41.6	92	39.5	0	0	---	0.00	29.905 
03:20	41.6	41.6	41.6	92	39.5	0	1	292	0.00	29.905 
03:25	41.6	41.6	41.6	92	39.5	0	1	292	0.00	29.905 
03:30	41.6	41.6	41.6	91	39.2	0	1	292	0.00	29.906 
03:35	41.6	41.6	41.6	91	39.2	0	0	---	0.00	29.906 
03:40	41.5	41.5	41.5	91	39.1	0	0	---	0.00	29.906 
03:45	41.5	41.5	41.5	91	39.1	0	0	---	0.00	29.904 
03:50	41.5	41.5	41.5	91	39.1	0	0	---	0.00	29.904 
03:55	41.3	41.3	41.3	91	38.9	0	0	---	0.00	29.904 
04:00	41.3	41.3	41.3	91	38.9	0	0	---	0.00	29.902 
04:05	41.2	41.2	41.2	91	38.8	0	1	292	0.00	29.902 
04:10	41.2	41.2	41.2	91	38.8	0	0	---	0.00	29.902 
04:15	41.2	41.2	41.2	91	38.8	0	0	---	0.00	29.904 
04:20	41.2	41.2	41.2	91	38.8	0	0	---	0.00	29.904 
04:25	41.1	41.1	41.1	91	38.7	0	0	---	0.00	29.904 
04:30	41.1	41.1	41.1	91	38.7	0	0	---	0.00	29.902 
04:35	40.9	40.9	40.9	91	38.5	0	0	---	0.00	29.902 
04:40	40.9	40.9	40.9	91	38.5	0	0	---	0.00	29.902 
04:45	40.9	40.9	40.9	91	38.5	0	0	---	0.00	29.902 
04:50	40.9	40.9	40.9	91	38.5	0	1	292	0.00	29.902 
04:55	40.8	40.8	40.8	91	38.4	0	0	---	0.00	29.902 
05:00	40.8	40.8	40.8	91	38.4	0	0	---	0.00	29.903 
05:05	40.8	40.8	40.8	91	38.4	0	0	---	0.00	29.903 
05:10	40.9	40.9	40.9	92	38.8	0	0	---	0.00	29.903 
05:15	40.9	40.9	40.9	92	38.8	0	0	---	0.00	29.904 
05:20	40.9	40.9	40.9	92	38.8	0	1	292	0.00	29.904 
05:25	40.9	40.9	40.9	92	38.8	0	0	---	0.00	29.904 
05:30	40.9	40.9	40.9	92	38.8	0	0	---	0.00	29.903 
05:35	40.8	40.8	40.8	91	38.4	0	0	---	0.00	29.903 
05:40	40.8	40.8	40.8	92	38.7	0	1	292	0.00	29.903 
05:45	40.8	40.8	40.8	92	38.7	0	0	---	0.00	29.904 
05:50	40.6	40.6	40.6	92	38.5	0	0	---	0.00	29.904 
05:55	40.6	40.6	40.6	92	38.5	0	0	---	0.00	29.904 
06:00	40.6	40.6	40.6	92	38.5	0	0	---	0.00	29.903 
06:05	40.6	40.6	40.6	92	38.5	0	1	292	0.00	29.903 
06:10	40.8	40.8	40.8	92	38.7	0	0	---	0.00	29.903 
06:15	40.8	40.8	40.8	92	38.7	0	1	292	0.00	29.904 
06:20	40.8	40.8	40.8	92	38.7	0	0	---	0.00	29.904 
06:25	40.9	40.9	40.9	92	38.8	0	0	---	0.00	29.904 
06:30	41.1	41.1	41.1	92	39.0	0	1	292	0.00	29.904 
06:35	41.1	41.1	41.1	92	39.0	0	0	---	0.00	29.904 
06:40	41.2	41.2	41.2	92	39.1	0	1	292	0.00	29.904 
06:45	41.3	41.3	41.3	92	39.2	0	1	292	0.00	29.904 
06:50	41.5	41.5	41.5	92	39.4	0	1	292	0.00	29.904 
06:55	41.5	41.5	41.5	92	39.4	0	1	292	0.00	29.904 
07:00	41.5	41.5	41.5	92	39.4	0	2	292	0.00	29.902 
07:05	41.5	41.5	41.5	92	39.4	0	0	---	0.00	29.902 
07:10	41.6	41.6	41.6	92	39.5	0	0	---	0.00	29.902 
07:15	41.6	41.6	41.6	92	39.5	0	1	292	0.00	29.903 
07:20	41.6	41.6	41.6	92	39.5	0	1	292	0.00	29.903 
07:25	41.8	41.8	41.8	92	39.6	0	1	292	0.00	29.903 
07:30	41.8	41.8	41.8	91	39.4	0	0	---	0.00	29.903 
07:35	41.8	41.8	41.8	91	39.4	0	1	292	0.00	29.903 
07:40	41.9	41.9	41.9	91	39.5	0	2	292	0.00	29.903 
07:45	41.9	41.9	41.9	91	39.5	0	1	292	0.00	29.903 
07:50	41.9	41.9	41.9	91	39.5	0	1	292	0.00	29.903 
07:55	41.9	41.9	41.9	91	39.5	0	0	---	0.00	29.903 
08:00	41.8	41.8	41.8	91	39.4	0	1	292	0.00	29.905 
08:05	41.8	41.8	41.8	91	39.4	0	1	292	0.00	29.905 
08:10	41.8	41.8	41.8	91	39.4	0	0	---	0.00	29.905 
08:15	41.8	41.8	41.8	91	39.4	0	1	270	0.00	29.909 
08:20	41.8	41.8	41.8	91	39.4	0	0	---	0.00	29.909 
08:25	41.9	41.9	41.9	91	39.5	0	1	270	0.00	29.909 
08:30	41.9	41.9	41.9	91	39.5	0	0	---	0.00	29.915 
08:35	42.1	42.1	42.1	91	39.7	0	1	270	0.00	29.915 
08:40	42.2	42.2	42.2	91	39.8	0	1	270	0.01	29.915 
08:45	42.3	42.3	42.3	91	39.9	0	1	270	0.00	29.919 
08:50	42.6	42.6	42.6	91	40.2	0	1	270	0.00	29.919 
08:55	42.9	42.9	42.9	91	40.5	0	2	270	0.00	29.919 
09:00	43.2	43.2	43.2	91	40.8	0	1	270	0.00	29.918 
09:05	43.5	43.5	43.5	91	41.0	0	1	270	0.00	29.918 
09:10	43.8	43.8	43.8	91	41.3	0	1	270	0.00	29.918 
09:15	44.1	44.1	44.1	90	41.4	0	1	270	0.00	29.922 
09:20	44.5	44.5	44.5	90	41.8	0	1	270	0.00	29.922 
09:25	44.8	44.8	44.8	89	41.8	0	3	270	0.00	29.922 
09:30	45.2	45.2	45.2	89	42.2	0	2	270	0.00	29.931 
09:35	45.5	45.5	45.5	88	42.2	0	1	270	0.00	29.931 
09:40	46.0	46.0	46.0	87	42.4	0	1	270	0.00	29.931 
09:45	46.4	46.4	46.4	87	42.7	0	3	270	0.00	29.930 
09:50	46.7	46.7	46.7	86	42.7	0	1	270	0.00	29.930 
09:55	47.1	47.1	47.1	85	42.8	0	3	270	0.00	29.930 
10:00	47.4	47.4	47.4	84	42.8	0	2	248	0.00	29.930 
10:05	48.0	48.0	48.0	83	43.1	0	2	270	0.00	29.930 
10:10	48.5	48.5	48.5	82	43.3	0	3	270	0.00	29.930 
10:15	48.9	48.9	48.9	81	43.3	0	2	270	0.00	29.931 
10:20	49.6	49.6	49.6	80	43.7	0	2	270	0.00	29.931 
10:25	50.2	50.2	50.2	78	43.6	0	3	270	0.00	29.931 
10:30	50.7	50.7	50.7	77	43.8	0	2	270	0.00	29.929 
10:35	51.1	51.1	51.1	76	43.8	0	2	270	0.00	29.929 
10:40	51.6	51.6	51.6	76	44.3	0	2	270	0.00	29.929 
10:45	52.0	52.0	52.0	75	44.3	0	2	270	0.00	29.928 
10:50	52.6	52.6	52.6	75	44.9	0	2	270	0.00	29.928 
10:55	53.1	53.1	53.1	74	45.0	0	1	270	0.00	29.928 
11:00	53.5	53.5	53.5	72	44.7	0	3	270	0.00	29.926 
11:05	53.8	53.8	53.8	71	44.6	1	2	270	0.00	29.926 
11:10	53.9	53.9	53.9	70	44.3	1	4	270	0.00	29.926 
11:15	54.1	54.1	54.1	71	44.9	1	4	248	0.00	29.928 
11:20	54.4	54.4	54.4	71	45.2	1	3	248	0.00	29.928 
11:25	54.5	54.5	54.5	70	44.9	1	5	248	0.00	29.928 
11:30	54.8	54.8	54.8	71	45.6	1	3	270	0.00	29.928 
11:35	55.3	55.3	55.3	70	45.7	0	4	248	0.00	29.928 
11:40	55.9	55.9	55.9	70	46.3	0	2	248	0.00	29.928 
11:45	56.3	56.3	56.3	69	46.3	1	3	270	0.00	29.925 
11:50	56.3	56.3	56.3	67	45.5	1	5	248	0.00	29.925 
11:55	56.5	56.5	56.5	66	45.3	1	3	248	0.00	29.925 
12:00	56.7	56.7	56.7	66	45.5	1	5	248	0.00	29.924 
12:05	57.0	57.0	57.0	66	45.8	1	4	248	0.00	29.924 
12:10	57.5	57.5	57.5	65	45.8	1	3	270	0.00	29.924 
12:15	58.0	58.0	58.0	65	46.3	1	4	270	0.00	29.922 
12:20	58.1	58.1	58.1	63	45.6	1	4	270	0.00	29.922 
12:25	58.4	58.4	58.4	64	46.3	1	2	270	0.00	29.922 
12:30	58.7	58.7	58.7	62	45.7	1	3	248	0.00	29.916 
12:35	58.9	58.9	58.9	60	45.0	1	4	270	0.00	29.916 
12:40	59.2	59.2	59.2	62	46.2	1	3	270	0.00	29.916 
12:45	59.5	59.5	59.5	61	46.0	1	4	270	0.00	29.911 
12:50	59.6	59.6	59.6	60	45.7	2	4	270	0.00	29.911 
12:55	59.6	59.6	59.6	60	45.7	1	4	270	0.00	29.911 
13:00	59.9	59.9	59.9	61	46.4	1	3	270	0.00	29.908 
13:05	60.2	60.2	60.2	58	45.4	1	5	270	0.00	29.908 
13:10	60.2	60.2	60.2	59	45.8	2	5	248	0.00	29.908 
13:15	60.4	60.4	60.4	58	45.6	2	4	270	0.00	29.902 
13:20	60.5	60.5	60.5	58	45.6	1	3	270	0.00	29.902 
13:25	60.9	60.9	60.9	56	45.1	1	4	248	0.00	29.902 
13:30	60.9	60.9	60.9	54	44.1	2	5	248	0.00	29.896 
13:35	60.9	60.9	60.9	55	44.6	1	5	270	0.00	29.896 
13:40	61.2	61.2	61.2	56	45.4	1	4	0	0.00	29.896 
13:45	61.6	61.6	61.6	56	45.7	1	3	0	0.00	29.892 
13:50	61.8	61.8	61.8	52	44.0	1	4	270	0.00	29.892 
13:55	62.0	62.0	62.0	52	44.2	1	4	248	0.00	29.892 
14:00	62.0	62.0	62.0	52	44.2	2	6	270	0.00	29.888 
14:05	62.0	62.0	62.0	53	44.7	1	3	315	0.00	29.888 
14:10	62.3	62.3	62.3	51	43.9	1	3	248	0.00	29.888 
14:15	62.4	62.4	62.4	48	42.4	1	3	248	0.00	29.881 
14:20	62.4	62.4	62.4	49	43.0	1	4	248	0.00	29.881 
14:25	62.6	62.6	62.6	49	43.2	1	5	270	0.00	29.881 
14:30	63.1	63.1	63.1	49	43.6	1	3	270	0.00	29.876 
14:35	63.4	63.4	63.4	47	42.8	1	4	248	0.00	29.876 
14:40	63.4	63.4	63.4	47	42.8	1	5	270	0.00	29.876 
14:45	63.4	63.4	63.4	46	42.3	1	6	270	0.00	29.874 
14:50	63.2	63.2	63.2	45	41.5	1	4	270	0.00	29.874 
14:55	63.2	63.2	63.2	45	41.5	1	4	292	0.00	29.874 
15:00	62.9	62.9	62.9	44	40.6	2	6	270	0.00	29.871 
15:05	62.7	62.7	62.7	47	42.2	1	5	270	0.00	29.871 
15:10	62.7	62.7	62.7	43	39.9	1	5	248	0.00	29.871 
15:15	62.6	62.6	62.6	43	39.8	1	5	248	0.00	29.875 
15:20	62.9	62.9	62.9	43	40.1	1	5	270	0.00	29.875 
15:25	62.9	62.9	62.9	42	39.5	2	7	270	0.00	29.875 
15:30	62.6	62.6	62.6	43	39.8	1	5	270	0.00	29.876 
15:35	62.1	62.1	62.1	44	39.9	1	4	270	0.00	29.876 
15:40	61.8	61.8	61.8	44	39.7	2	5	270	0.00	29.876 
15:45	62.1	62.1	62.1	44	39.9	2	6	270	0.00	29.873 
15:50	62.3	62.3	62.3	44	40.1	1	5	270	0.00	29.873 
15:55	62.6	62.6	62.6	44	40.4	1	4	292	0.00	29.873 
16:00	63.1	63.1	63.1	43	40.2	1	5	292	0.00	29.866 
16:05	63.4	63.4	63.4	42	39.9	2	5	270	0.00	29.866 
16:10	63.4	63.4	63.4	40	38.7	2	7	270	0.00	29.866 
16:15	63.5	63.5	63.5	42	40.0	1	5	270	0.00	29.866 
16:20	63.5	63.5	63.5	43	40.6	1	4	292	0.00	29.866 
16:25	63.5	63.5	63.5	43	40.6	2	4	292	0.00	29.866 
16:30	63.2	63.2	63.2	43	40.3	2	6	292	0.00	29.864 
16:35	63.1	63.1	63.1	44	40.8	1	4	292	0.00	29.864 
16:40	63.1	63.1	63.1	43	40.2	1	4	270	0.00	29.864 
16:45	62.9	62.9	62.9	43	40.1	2	6	270	0.00	29.866 
16:50	62.9	62.9	62.9	45	41.2	1	3	270	0.00	29.866 
16:55	62.9	62.9	62.9	44	40.6	1	4	270	0.00	29.866 
17:00	62.7	62.7	62.7	43	39.9	2	6	248	0.00	29.864 
17:05	62.4	62.4	62.4	45	40.8	1	4	270	0.00	29.864 
17:10	62.1	62.1	62.1	45	40.5	1	4	292	0.00	29.864 
17:15	61.6	61.6	61.6	46	40.6	1	4	292	0.00	29.870 
17:20	61.3	61.3	61.3	48	41.4	0	1	292	0.00	29.870 
17:25	61.0	61.0	61.0	47	40.6	0	3	292	0.00	29.870 
17:30	60.7	60.7	60.7	48	40.9	1	3	292	0.00	29.874 
17:35	60.7	60.7	60.7	48	40.9	1	4	292	0.00	29.874 
17:40	60.7	60.7	60.7	49	41.4	1	4	292	0.00	29.874 
17:45	60.7	60.7	60.7	49	41.4	2	5	292	0.00	29.876 
17:50	60.4	60.4	60.4	50	41.7	1	4	292	0.00	29.876 
17:55	60.2	60.2	60.2	49	41.0	1	5	292	0.00	29.876 
18:00	59.9	59.9	59.9	48	40.2	2	6	270	0.00	29.881 
18:05	59.8	59.8	59.8	50	41.1	1	5	270	0.00	29.881 
18:10	59.5	59.5	59.5	50	40.8	1	4	270	0.00	29.881 
18:15	59.3	59.3	59.3	50	40.7	1	4	270	0.00	29.885 
18:20	59.0	59.0	59.0	51	40.9	0	1	270	0.00	29.885 
18:25	58.7	58.7	58.7	52	41.1	0	3	270	0.00	29.885 
18:30	58.4	58.4	58.4	53	41.3	1	5	270	0.00	29.886 
18:35	58.3	58.3	58.3	53	41.2	2	4	270	0.00	29.886 
18:40	58.0	58.0	58.0	54	41.4	1	3	270	0.00	29.886 
18:45	57.5	57.5	57.5	55	41.5	0	3	270	0.00	29.890 
18:50	57.2	57.2	57.2	56	41.6	0	2	270	0.00	29.890 
18:55	56.9	56.9	56.9	57	41.8	1	3	270	0.00	29.890 
19:00	56.5	56.5	56.5	57	41.5	1	4	270	0.00	29.896 
19:05	56.2	56.2	56.2	58	41.6	1	3	270	0.00	29.896 
19:10	55.9	55.9	55.9	59	41.8	2	4	270	0.00	29.896 
19:15	55.4	55.4	55.4	60	41.7	2	5	270	0.00	29.905 
19:20	55.1	55.1	55.1	62	42.3	1	4	270	0.00	29.905 
19:25	54.7	54.7	54.7	63	42.4	2	5	315	0.00	29.905 
19:30	54.1	54.1	54.1	67	43.4	2	6	270	0.00	29.915 
19:35	53.2	53.2	53.2	69	43.3	3	7	270	0.00	29.915 
19:40	52.5	52.5	52.5	71	43.4	2	6	270	0.00	29.915 
19:45	51.9	51.9	51.9	71	42.8	4	7	270	0.00	29.932 
19:50	51.4	51.4	51.4	72	42.7	3	6	270	0.00	29.932 
19:55	51.0	51.0	51.0	73	42.7	3	6	315	0.00	29.932 
20:00	50.5	50.5	50.5	73	42.2	2	6	315	0.00	29.944 
20:05	49.9	49.9	49.9	73	41.6	3	6	270	0.00	29.944 
20:10	49.5	49.5	49.5	74	41.6	3	6	315	0.00	29.944 
20:15	49.1	49.1	49.1	74	41.2	2	4	292	0.00	29.948 
20:20	48.6	48.6	48.6	75	41.0	3	6	270	0.00	29.948 
20:25	48.3	48.3	48.3	75	40.7	1	5	270	0.00	29.948 
20:30	48.0	48.0	48.0	76	40.8	1	4	315	0.00	29.951 
20:35	47.7	47.7	47.7	76	40.5	1	3	270	0.00	29.951 
20:40	47.6	47.6	47.6	76	40.4	1	4	270	0.00	29.951 
20:45	47.4	47.4	47.4	77	40.6	1	3	270	0.00	29.952 
20:50	47.1	47.1	47.1	77	40.3	1	3	270	0.00	29.952 
20:55	47.0	47.0	47.0	77	40.2	0	1	270	0.00	29.952 
21:00	46.8	46.8	46.8	77	40.0	0	2	270	0.00	29.954 
21:05	46.7	46.7	46.7	78	40.2	0	1	270	0.00	29.954 
21:10	46.5	46.5	46.5	78	40.0	0	3	270	0.00	29.954 
21:15	46.4	46.4	46.4	78	39.9	0	3	270	0.00	29.952 
21:20	46.2	46.2	46.2	78	39.7	0	1	270	0.00	29.952 
21:25	46.1	46.1	46.1	79	40.0	0	1	270	0.00	29.952 
21:30	45.8	45.8	45.8	79	39.7	0	1	270	0.00	29.954 
21:35	45.7	45.7	45.7	79	39.6	0	1	270	0.00	29.954 
21:40	45.5	45.5	45.5	80	39.7	0	0	---	0.00	29.954 
21:45	45.4	45.4	45.4	80	39.6	0	1	270	0.00	29.952 
21:50	45.1	45.1	45.1	81	39.6	0	1	270	0.00	29.952 
21:55	44.9	44.9	44.9	81	39.4	0	0	---	0.00	29.952 
22:00	44.8	44.8	44.8	81	39.3	0	0	---	0.00	29.951 
22:05	44.5	44.5	44.5	81	39.0	0	0	---	0.00	29.951 
22:10	44.2	44.2	44.2	81	38.7	0	0	---	0.00	29.951 
22:15	44.1	44.1	44.1	81	38.6	0	0	---	0.00	29.956 
22:20	43.8	43.8	43.8	82	38.7	0	0	---	0.00	29.956 
22:25	43.5	43.5	43.5	82	38.4	0	0	---	0.00	29.956 
22:30	43.2	43.2	43.2	83	38.4	0	0	---	0.00	29.957 
22:35	43.1	43.1	43.1	84	38.6	0	0	---	0.00	29.957 
22:40	42.8	42.8	42.8	84	38.3	0	0	---	0.00	29.957 
22:45	42.6	42.6	42.6	84	38.1	0	0	---	0.00	29.957 
22:50	42.5	42.5	42.5	85	38.3	0	0	---	0.00	29.957 
22:55	42.3	42.3	42.3	85	38.1	0	0	---	0.00	29.957 
23:00	42.1	42.1	42.1	85	37.9	0	0	---	0.00	29.956 
23:05	42.1	42.1	42.1	86	38.2	0	0	---	0.00	29.956 
23:10	42.2	42.2	42.2	87	38.6	0	0	---	0.00	29.956 
23:15	42.3	42.3	42.3	87	38.7	0	1	270	0.00	29.958 
23:20	42.5	42.5	42.5	87	38.9	0	0	---	0.00	29.958 
23:25	42.6	42.6	42.6	87	39.0	0	0	---	0.00	29.958 
23:30	42.6	42.6	42.6	86	38.7	0	0	---	0.00	29.953 
23:35	42.8	42.8	42.8	86	38.9	0	0	---	0.00	29.953 
23:40	42.8	42.8	42.8	86	38.9	0	0	---	0.00	29.953 
23:45	42.8	42.8	42.8	86	38.9	0	0	---	0.00	29.943 
23:50	42.8	42.8	42.8	86	38.9	0	0	---	0.00	29.943 
23:55	42.8	42.8	42.8	85	38.6	0	0	---	0.00	29.943 

CoCoRaHS
IN-AL-39
A2 Web Hosting
Creative Commons License
GoDaddy
search engine by freefind advanced

loaded 2018-11-18 11:06:09 • last modified 2010-11-18 10:43:29
Privacy PolicyDisclaimer
• wx.awcolley.com is powered by PmWiki v.2002016 •
• all content (unless otherwise noted) © 2018 A W Colley